Date,TemperatureHighF,TemperatureAvgF,TemperatureLowF,DewpointHighF,DewpointAvgF,DewpointLowF,HumidityHigh,HumidityAvg,HumidityLow,PressureMaxIn,PressureMinIn,WindSpeedMaxMPH,WindSpeedAvgMPH,GustSpeedMaxMPH,PrecipitationSumIn
2013-1-1,21,14,6,14,10,3,90,81,61,30.41,30.21,14,6,16,0.00
2013-1-2,34,25,14,30,21,10,92,84,80,30.30,30.13,16,7,17,0.00
2013-1-3,31,24,15,27,20,13,90,85,79,30.48,30.30,28,8,29,0.00
2013-1-4,36,23,16,24,18,13,91,79,56,30.39,30.21,18,7,19,0.00
2013-1-5,33,26,20,29,21,16,91,83,69,30.28,30.06,30,10,34,0.00
2013-1-6,38,26,14,27,20,11,90,81,62,30.40,30.19,27,8,30,0.00
2013-1-7,40,34,26,31,27,22,91,77,65,30.19,29.98,32,9,32,0.00
2013-1-8,42,34,25,33,29,23,92,82,70,30.19,29.90,28,7,28,0.00
2013-1-9,50,37,27,38,30,22,89,77,58,30.48,30.18,12,4,14,0.00
2013-1-10,39,36,33,37,33,27,98,87,68,30.37,29.73,27,10,30,0.11
2013-1-11,53,42,26,47,39,19,100,90,73,29.79,29.41,38,15,43,0.01
2013-1-12,26,19,12,20,11,5,78,71,61,30.20,29.79,31,16,43,0.00
2013-1-13,20,13,7,10,6,3,89,73,58,30.43,30.19,23,9,24,0.00
2013-1-14,30,18,7,14,10,3,86,72,49,30.56,30.42,14,2,16,0.00
2013-1-15,35,24,15,20,16,10,83,72,51,30.43,30.11,17,6,20,0.00
2013-1-16,50,36,23,35,28,18,87,73,56,30.28,29.98,24,10,26,0.00
2013-1-17,40,31,26,38,29,25,98,93,80,30.51,30.28,15,4,15,0.00
2013-1-18,52,40,30,35,31,27,92,71,49,30.34,29.92,31,10,35,0.00
2013-1-19,52,40,24,35,29,17,80,66,48,30.36,29.89,39,13,39,0.00
2013-1-20,24,18,12,18,11,7,87,74,60,30.48,30.34,23,7,23,0.00
2013-1-21,15,12,8,12,1,-5,89,62,48,30.54,30.44,24,10,27,0.00
2013-1-22,25,16,12,12,9,1,92,73,55,30.48,30.31,17,5,17,0.00
2013-1-23,30,20,12,20,13,6,85,75,64,30.56,30.23,28,12,29,0.00
2013-1-24,20,12,2,8,1,-4,77,63,49,30.61,30.26,24,11,27,0.00
2013-1-25,49,30,16,28,19,8,85,65,42,30.30,30.20,19,6,20,0.00
2013-1-26,54,33,18,29,23,15,90,71,34,30.29,30.04,30,13,31,0.00
2013-1-27,42,39,35,42,37,27,98,93,65,30.04,29.71,27,11,28,0.20
2013-1-28,46,39,33,46,38,32,99,99,98,29.89,29.58,18,6,18,0.02
2013-1-29,40,33,31,39,32,30,99,95,91,29.74,29.58,30,16,31,0.01
2013-1-30,31,22,15,30,18,11,98,85,71,30.01,29.66,45,20,48,0.00
2013-1-31,16,8,-1,12,2,-6,85,74,62,30.52,29.99,47,14,50,0.00
2013-2-1,27,15,0,21,8,-6,81,76,70,30.52,30.16,35,10,35,0.00
2013-2-2,43,32,25,36,27,19,90,82,71,30.27,30.09,32,8,34,0.00
2013-2-3,42,34,22,32,26,17,86,74,57,30.27,29.83,31,11,34,0.00
2013-2-4,37,28,23,30,24,21,100,87,76,30.06,29.81,31,10,31,0.00
2013-2-5,50,38,26,36,29,24,94,74,51,30.11,29.89,27,8,28,0.00
2013-2-6,57,42,32,43,34,28,92,75,50,30.11,29.86,22,8,26,0.00
2013-2-7,41,33,29,37,30,25,92,88,85,30.29,29.90,32,17,34,0.00
2013-2-8,34,29,25,29,26,23,100,89,82,30.40,30.18,24,10,25,0.00
2013-2-9,50,38,29,41,33,27,95,84,68,30.21,29.69,34,20,35,0.00
2013-2-10,46,37,32,42,33,24,97,86,74,29.87,29.29,51,22,52,0.02
2013-2-11,38,31,25,28,24,22,90,76,62,30.21,29.87,42,14,43,0.00
2013-2-12,48,33,21,27,23,19,94,69,40,30.20,29.96,24,5,24,0.00
2013-2-13,53,38,26,33,27,22,92,67,39,29.96,29.78,22,5,24,0.00
2013-2-14,43,37,21,33,28,16,95,72,44,30.32,29.84,39,16,44,0.00
2013-2-15,32,22,13,26,17,10,94,81,55,30.43,30.32,23,8,28,0.00
2013-2-16,34,24,13,27,20,11,92,84,73,30.41,30.06,21,9,24,0.00
2013-2-17,52,37,23,39,30,20,89,76,60,30.06,29.58,33,14,35,0.00
2013-2-18,43,32,21,35,26,16,95,79,64,30.12,29.56,46,19,49,0.00
2013-2-19,26,17,10,19,7,3,92,66,40,30.45,30.11,31,16,35,0.00
2013-2-20,24,15,6,12,6,1,81,68,52,30.46,30.28,22,10,23,0.00
2013-2-21,23,21,21,20,15,10,94,77,57,30.31,29.89,29,13,29,0.00
2013-2-22,22,17,8,20,14,5,94,87,76,30.12,29.89,22,10,24,0.00
2013-2-23,36,21,6,29,17,3,92,84,70,30.09,29.92,22,7,24,0.01
2013-2-24,40,31,22,30,26,19,91,81,63,30.11,29.96,14,5,15,0.00
2013-2-25,34,29,26,30,27,24,94,89,79,30.12,29.93,26,13,27,0.00
2013-2-26,30,27,24,29,26,23,96,94,91,29.98,29.83,28,18,30,0.01
2013-2-27,37,30,24,29,25,21,93,82,63,30.16,29.94,44,22,48,0.00
2013-2-28,31,27,25,26,24,20,89,85,79,30.30,30.15,36,20,37,0.00
2013-3-1,28,25,23,22,20,17,89,80,70,30.42,30.27,28,16,30,0.00
2013-3-2,39,27,14,26,20,11,91,76,51,30.42,30.14,20,6,20,0.00
2013-3-3,41,33,26,33,28,23,89,82,73,30.14,29.73,28,14,29,0.00
2013-3-4,42,34,29,33,30,23,95,83,66,30.09,29.68,29,12,29,0.00
2013-3-5,32,27,22,23,20,17,84,73,61,30.45,30.06,42,22,48,0.00
2013-3-6,39,28,20,25,21,16,92,74,54,30.50,30.29,21,8,22,0.00
2013-3-7,52,35,23,32,26,20,88,73,44,30.32,30.14,32,15,34,0.00
2013-3-8,56,42,29,42,34,26,89,75,56,30.22,29.93,31,16,33,0.07
2013-3-9,55,47,36,52,44,34,96,91,84,29.93,29.54,38,16,43,0.09
2013-3-10,36,28,22,34,26,20,96,94,92,30.00,29.69,46,27,49,0.07
2013-3-11,31,23,19,23,18,14,93,81,58,30.08,29.94,33,12,34,0.01
2013-3-12,32,29,24,25,23,19,86,78,70,30.39,30.07,36,16,37,0.00
2013-3-13,38,27,16,28,21,14,93,78,63,30.52,30.30,17,6,18,0.00
2013-3-14,54,41,31,44,34,24,90,77,66,30.30,30.10,20,7,21,0.00
2013-3-15,60,48,38,48,40,34,93,77,57,30.10,29.72,27,8,28,0.00
2013-3-16,40,32,28,38,28,25,95,86,78,30.22,29.85,37,16,38,0.01
2013-3-17,46,33,24,34,27,21,92,79,62,30.19,29.79,27,12,28,0.00
2013-3-18,39,34,28,34,24,16,97,69,43,30.10,29.76,44,17,45,0.06
2013-3-19,50,34,22,32,21,16,84,60,35,30.37,30.09,37,9,37,0.00
2013-3-20,35,25,17,20,12,6,81,60,37,30.45,30.15,30,13,33,0.00
2013-3-21,33,26,21,21,16,13,85,67,48,30.16,29.96,21,8,21,0.00
2013-3-22,34,31,27,23,21,18,80,68,53,30.08,30.01,14,5,15,0.00
2013-3-23,36,31,27,30,26,22,96,82,61,30.16,30.05,23,10,25,0.00
2013-3-24,29,26,24,27,22,18,95,85,69,30.16,30.08,34,22,37,0.00
2013-3-25,30,26,24,24,22,19,92,86,69,30.41,30.15,35,19,38,0.00
2013-3-26,41,28,17,25,20,13,88,72,48,30.46,30.30,14,5,16,0.00
2013-3-27,52,37,26,34,28,22,92,71,48,30.32,30.22,25,12,29,0.00
2013-3-28,58,43,29,36,32,25,89,66,39,30.29,30.17,14,5,19,0.00
2013-3-29,68,52,35,42,34,30,90,56,25,30.25,30.04,27,11,34,0.00
2013-3-30,65,55,47,54,46,35,96,73,42,30.11,29.89,41,10,44,0.20
2013-3-31,56,47,33,44,35,25,95,66,31,30.15,29.95,36,14,38,0.00
2013-4-1,39,31,23,32,21,15,95,69,39,30.38,30.15,29,12,30,0.02
2013-4-2,54,38,24,28,24,18,83,60,36,30.40,30.28,19,3,19,0.04
2013-4-3,54,40,29,29,26,23,80,58,37,30.39,30.25,24,9,24,0.00
2013-4-4,62,46,31,40,33,25,92,63,40,30.27,30.07,21,6,27,0.00
2013-4-5,70,52,32,42,35,29,89,56,26,30.18,29.71,38,14,38,0.00
2013-4-6,70,59,49,48,41,36,78,54,33,29.79,29.60,37,13,37,0.01
2013-4-7,74,57,42,52,42,36,93,59,30,29.83,29.60,38,8,44,0.01
2013-4-8,67,58,47,61,55,46,98,91,79,29.69,29.62,22,8,22,0.06
2013-4-9,62,47,34,60,46,32,97,95,90,29.99,29.54,39,18,41,0.38
2013-4-10,37,35,32,36,34,31,98,97,93,30.01,29.80,33,16,36,0.56
2013-4-11,35,32,30,33,29,27,98,90,83,29.85,29.72,26,14,28,0.01
2013-4-12,43,35,32,34,30,27,90,80,64,30.07,29.80,31,15,32,0.00
2013-4-13,56,42,27,41,34,24,91,75,57,30.09,29.66,31,11,31,0.00
2013-4-14,67,54,43,52,42,32,86,67,37,29.69,29.32,52,14,53,0.01
2013-4-15,45,40,34,32,28,23,78,64,55,30.12,29.69,22,10,25,0.00
2013-4-16,50,42,34,35,30,27,84,65,43,30.28,30.09,25,12,26,0.00
2013-4-17,45,41,36,42,38,35,97,90,68,30.18,29.65,40,15,40,0.58
2013-4-18,36,34,31,35,31,27,97,91,80,29.98,29.73,43,24,45,0.18
2013-4-19,46,36,28,29,25,21,84,66,41,30.16,29.93,34,16,41,0.00
2013-4-20,48,37,24,32,25,20,88,65,42,30.31,30.15,28,9,29,0.00
2013-4-21,68,54,42,50,40,31,94,60,38,30.17,29.99,44,18,48,0.42
2013-4-22,53,44,33,51,43,30,98,94,88,30.23,29.94,38,13,40,1.36
2013-4-23,37,32,29,30,26,24,89,79,66,30.30,30.18,34,20,38,0.00
2013-4-24,59,40,25,37,28,22,88,65,29,30.28,30.09,34,8,39,0.00
2013-4-25,68,51,32,40,34,28,86,57,29,30.29,30.04,34,9,38,0.00
2013-4-26,68,56,46,52,45,38,94,65,50,30.19,30.03,29,12,31,0.00
2013-4-27,68,54,42,52,48,40,97,82,55,30.20,29.96,18,5,18,0.00
2013-4-28,81,62,44,55,50,43,97,68,36,29.96,29.67,31,11,34,0.00
2013-4-29,84,68,53,59,53,46,90,62,31,29.75,29.49,22,6,23,0.00
2013-4-30,73,68,61,59,51,45,65,54,45,29.84,29.46,36,16,45,0.00
2013-5-1,61,42,32,47,38,32,97,85,51,30.45,29.84,48,26,52,0.20
2013-5-2,48,38,32,37,32,28,98,79,59,30.59,30.42,38,18,42,0.24
2013-5-3,47,39,31,34,31,27,88,72,56,30.43,30.07,35,18,37,0.00
2013-5-4,42,39,35,41,37,32,95,91,75,30.18,30.00,38,22,41,0.02
2013-5-5,53,46,41,49,44,39,100,91,83,30.21,30.13,25,14,25,0.00
2013-5-6,70,54,46,53,48,45,96,82,52,30.18,30.04,16,6,16,0.00
2013-5-7,73,62,47,55,52,46,97,73,48,30.09,29.92,27,5,27,0.00
2013-5-8,71,62,57,58,56,52,92,79,60,29.95,29.86,19,7,21,0.04
2013-5-9,68,60,56,57,56,54,96,88,66,29.99,29.82,29,12,30,0.00
2013-5-10,69,57,49,54,48,44,94,75,44,30.11,29.98,28,12,28,0.00
2013-5-11,61,54,42,47,31,18,83,46,21,30.27,30.04,43,17,46,0.00
2013-5-12,68,52,35,35,28,21,70,42,21,30.30,30.12,15,3,16,0.00
2013-5-13,83,66,47,55,45,35,76,50,26,30.13,29.83,32,12,32,0.00
2013-5-14,98,81,61,60,54,45,84,46,18,29.83,29.60,38,12,43,0.00
2013-5-15,84,74,61,55,47,40,67,40,23,29.85,29.72,28,11,30,0.00
2013-5-16,83,72,59,64,58,47,84,62,44,29.84,29.71,27,6,27,0.00
2013-5-17,84,73,61,63,60,57,89,66,43,29.86,29.77,23,8,25,0.00
2013-5-18,85,74,60,69,64,57,92,72,54,29.85,29.63,33,14,36,0.00
2013-5-19,78,66,60,68,61,57,95,85,59,29.77,29.45,35,11,42,0.38
2013-5-20,76,66,56,58,55,50,95,70,46,29.65,29.50,35,12,39,0.03
2013-5-21,63,59,53,56,50,46,89,74,59,29.74,29.59,29,11,30,0.00
2013-5-22,60,55,50,51,49,47,92,80,66,30.00,29.74,30,14,32,0.00
2013-5-23,73,60,51,52,48,44,90,67,35,30.23,29.99,24,12,29,0.00
2013-5-24,75,63,49,53,49,44,85,62,42,30.28,29.98,38,16,39,0.00
2013-5-25,81,69,59,69,62,49,96,78,58,30.10,29.90,35,13,39,0.27
2013-5-26,85,74,66,71,67,62,93,80,62,29.95,29.77,32,13,32,0.00
2013-5-27,78,68,60,68,63,58,97,86,63,29.88,29.52,35,13,37,1.76
2013-5-28,81,69,62,68,63,60,100,82,55,29.69,29.59,28,6,28,0.18
2013-5-29,76,68,60,71,65,59,98,90,76,29.70,29.47,43,16,57,0.94
2013-5-30,74,65,59,65,60,55,96,85,70,29.61,29.47,39,12,48,0.72
2013-5-31,78,67,55,56,52,45,91,62,34,29.72,29.60,16,1,19,0.10
2013-6-1,62,58,54,54,50,48,88,76,61,30.04,29.66,30,3,30,0.00
2013-6-2,70,58,51,49,46,42,87,65,40,30.14,30.00,24,9,27,0.00
2013-6-3,75,63,50,56,50,46,89,64,41,30.04,29.79,37,15,37,0.00
2013-6-4,76,67,60,65,60,55,95,80,67,29.96,29.83,24,9,28,0.00
2013-6-5,73,64,55,64,54,48,97,72,44,30.03,29.92,32,11,34,0.14
2013-6-6,72,63,53,57,51,49,90,68,46,30.00,29.94,23,9,26,0.00
2013-6-7,76,64,50,54,51,48,94,65,40,30.03,29.87,20,4,23,0.00
2013-6-8,74,64,57,65,58,51,95,80,62,29.88,29.63,35,13,35,0.72
2013-6-9,70,64,59,61,58,56,95,82,69,29.83,29.71,29,11,30,0.23
2013-6-10,81,69,56,67,61,54,94,76,55,29.88,29.74,23,6,27,0.00
2013-6-11,90,78,68,70,66,61,92,69,43,29.78,29.62,32,10,39,0.00
2013-6-12,88,78,63,72,65,54,89,67,46,29.99,29.59,35,15,37,0.10
2013-6-13,80,67,58,62,56,51,88,71,39,30.10,29.95,16,6,17,0.02
2013-6-14,89,75,63,75,66,58,87,75,59,30.00,29.70,41,11,41,0.08
2013-6-15,83,74,66,69,66,61,94,78,54,29.93,29.77,31,10,32,0.11
2013-6-16,86,74,66,70,66,62,99,77,45,29.97,29.88,14,3,16,0.00
2013-6-17,88,77,66,66,60,52,93,61,33,29.98,29.90,19,5,21,0.00
2013-6-18,87,74,63,62,58,54,85,59,35,30.04,29.93,12,2,14,0.00
2013-6-19,86,76,64,67,63,60,89,67,43,29.97,29.85,33,11,33,0.00
2013-6-20,90,80,68,73,69,63,85,70,57,29.92,29.74,39,17,41,0.00
2013-6-21,96,85,76,74,71,67,81,65,40,29.81,29.71,33,16,39,0.00
2013-6-22,90,81,71,72,68,59,83,64,48,29.94,29.72,40,16,45,0.01
2013-6-23,81,73,65,72,68,62,95,83,68,29.90,29.70,38,9,38,0.54
2013-6-24,82,75,70,75,71,67,95,86,75,29.91,29.67,48,11,51,0.37
2013-6-25,86,80,72,77,71,61,90,75,62,29.74,29.60,31,11,36,0.01
2013-6-26,90,80,72,74,69,61,97,72,41,29.84,29.61,21,6,24,0.00
2013-6-27,82,74,67,73,68,64,93,84,67,29.97,29.84,28,3,36,0.96
2013-6-28,84,76,68,68,63,55,91,66,41,29.97,29.87,0,0,0,0.00
2013-6-29,80,71,62,62,58,54,83,66,44,29.93,29.86,9,0,9,0.00
2013-6-30,77,67,58,62,56,51,94,71,43,30.10,29.93,8,0,9,0.00
2013-7-1,81,69,54,62,55,50,90,65,37,30.18,30.09,19,5,19,0.00
2013-7-2,85,68,58,63,58,53,91,70,36,30.15,30.03,15,2,17,0.00
2013-7-3,86,70,58,63,58,51,93,68,36,30.06,29.92,20,3,25,0.00
2013-7-4,85,73,59,62,58,53,87,62,35,29.97,29.85,25,10,27,0.00
2013-7-5,87,76,65,68,62,58,81,64,44,29.89,29.78,30,12,33,0.00
2013-7-6,86,77,68,70,65,62,82,68,51,29.83,29.75,32,13,33,0.00
2013-7-7,92,82,73,73,67,62,79,63,44,29.85,29.76,28,10,32,0.00
2013-7-8,89,81,77,75,71,66,81,71,58,29.92,29.83,29,8,31,0.00
2013-7-9,98,84,74,77,73,68,89,69,46,29.90,29.79,25,5,26,0.01
2013-7-10,86,77,69,72,67,63,92,73,50,30.04,29.89,19,6,20,0.00
2013-7-11,85,75,64,65,62,59,90,67,47,30.08,29.92,24,10,27,0.00
2013-7-12,89,78,68,73,66,60,78,67,56,29.96,29.86,30,16,32,0.00
2013-7-13,87,79,72,76,68,62,79,71,62,29.93,29.86,28,15,31,0.00
2013-7-14,85,76,68,68,63,59,84,66,44,30.11,29.91,28,12,31,0.00
2013-7-15,87,76,61,71,66,58,93,73,51,30.16,30.07,22,5,22,0.00
2013-7-16,89,79,68,70,67,64,92,70,47,30.22,30.13,19,2,19,0.00
2013-7-17,90,80,70,72,70,68,93,72,51,30.26,30.12,16,4,18,0.00
2013-7-18,92,81,70,72,69,67,90,68,45,30.13,29.88,29,9,31,0.00
2013-7-19,94,83,72,72,68,60,78,61,38,29.91,29.82,17,6,20,0.00
2013-7-20,86,76,66,69,64,56,88,68,37,29.95,29.80,18,4,20,0.00
2013-7-21,90,78,68,72,69,66,93,77,53,29.89,29.71,25,4,26,0.00
2013-7-22,93,81,69,75,71,66,95,74,48,29.80,29.67,22,3,27,0.00
2013-7-23,80,72,65,69,65,62,94,81,64,30.01,29.78,15,0,18,0.42
2013-7-24,85,71,59,68,63,57,96,79,51,30.07,29.96,15,3,16,0.00
2013-7-25,78,71,67,69,66,63,95,83,71,30.03,29.96,0,0,0,0.00
2013-7-26,76,69,58,68,60,52,97,76,47,30.10,29.94,0,0,0,0.01
2013-7-27,71,62,53,55,51,46,94,69,45,30.14,30.00,20,5,21,0.00
2013-7-28,81,64,47,56,51,44,93,67,38,30.08,30.00,12,1,12,0.00
2013-7-29,65,62,60,64,60,54,98,92,73,30.04,29.98,6,0,6,0.30
2013-7-30,75,69,64,69,66,64,99,92,78,30.10,30.00,0,0,1,0.00
2013-7-31,85,72,60,70,66,59,98,82,59,30.13,30.02,10,1,11,0.00
2013-8-1,86,73,62,72,67,60,98,82,52,30.06,29.83,6,0,6,0.60
2013-8-2,83,74,63,71,67,61,96,80,63,29.98,29.75,11,0,12,0.61
2013-8-3,79,69,60,65,62,58,93,79,56,30.16,29.98,0,0,2,0.00
2013-8-4,76,68,60,69,62,57,93,82,67,30.16,30.00,0,0,2,0.00
2013-8-5,88,75,68,76,71,66,98,88,66,30.02,29.80,0,0,0,0.00
2013-8-6,88,77,67,78,72,66,98,85,66,29.88,29.75,4,0,4,0.00
2013-8-7,83,74,66,74,66,58,96,79,47,29.96,29.78,6,0,7,0.00
2013-8-8,77,69,63,68,64,61,94,86,65,30.00,29.92,9,1,12,0.00
2013-8-9,80,71,62,70,65,58,97,83,53,30.12,29.99,7,0,8,0.00
2013-8-10,82,69,56,67,61,54,96,77,56,30.19,30.06,19,5,20,0.00
2013-8-11,84,73,62,71,66,60,92,79,59,30.11,29.95,22,7,23,0.00
2013-8-12,83,73,64,73,67,61,97,82,55,30.04,29.96,7,0,8,0.04
2013-8-13,78,69,60,64,60,56,94,74,49,30.15,30.04,6,0,6,0.00
2013-8-14,74,66,56,64,59,54,93,79,61,30.18,30.05,18,6,21,0.00
2013-8-15,67,63,60,63,60,59,97,91,82,30.09,30.00,23,9,24,0.23
2013-8-16,74,66,61,62,60,58,96,82,63,30.16,30.08,8,0,9,0.00
2013-8-17,77,67,60,62,59,56,92,75,54,30.19,30.09,9,2,9,0.00
2013-8-18,79,67,50,65,59,49,97,78,54,30.15,30.03,21,5,23,0.00
2013-8-19,84,73,62,70,66,60,94,79,60,30.06,29.90,27,10,29,0.00
2013-8-20,87,77,70,72,69,66,92,77,59,29.94,29.87,27,11,29,0.00
2013-8-21,91,79,70,74,70,66,89,75,55,29.96,29.88,23,11,25,0.00
2013-8-22,85,75,68,71,69,66,95,81,61,30.05,29.92,23,6,27,0.00
2013-8-23,88,78,69,75,70,68,96,79,53,30.04,29.92,25,8,27,0.00
2013-8-24,91,81,73,76,71,68,88,74,57,30.02,29.94,31,13,31,0.00
2013-8-25,93,82,73,75,72,69,90,73,51,30.07,29.98,27,12,33,0.00
2013-8-26,93,82,75,74,72,70,86,70,51,30.03,29.90,25,11,29,0.00
2013-8-27,93,83,74,73,70,66,77,66,48,29.91,29.85,27,11,29,0.00
2013-8-28,93,80,68,71,67,64,87,67,40,29.96,29.88,21,6,21,0.00
2013-8-29,95,82,70,76,72,67,95,74,46,29.96,29.85,22,6,24,0.00
2013-8-30,97,82,71,79,71,67,92,72,42,29.86,29.77,14,5,17,0.00
2013-8-31,96,80,70,75,72,67,97,79,41,29.84,29.73,12,2,12,0.00
2013-9-1,82,74,63,71,64,57,96,74,46,29.98,29.71,22,2,25,0.05
2013-9-2,80,66,56,62,57,52,98,76,40,30.09,29.97,16,4,18,0.00
2013-9-3,85,68,51,63,58,49,95,73,46,30.10,30.00,16,4,17,0.00
2013-9-4,86,72,63,66,62,58,90,73,43,30.14,30.02,20,5,24,0.00
2013-9-5,86,74,67,67,64,59,89,71,40,30.16,30.05,20,6,22,0.00
2013-9-6,92,78,65,71,66,60,88,69,46,30.06,29.86,25,10,28,0.00
2013-9-7,92,78,71,72,69,66,93,75,45,29.88,29.81,28,7,31,0.01
2013-9-8,94,79,68,75,71,67,97,79,46,29.87,29.73,7,0,7,0.00
2013-9-9,96,84,73,71,63,58,83,52,30,29.80,29.73,0,0,0,0.00
2013-9-10,95,80,69,69,64,60,94,61,36,30.01,29.80,29,7,32,0.12
2013-9-11,80,73,70,73,70,67,97,91,74,30.10,29.99,19,2,20,0.85
2013-9-12,79,70,59,69,59,51,97,72,41,30.19,30.09,8,0,10,0.01
2013-9-13,76,63,50,55,52,49,96,69,40,30.22,30.06,14,3,19,0.00
2013-9-14,78,64,51,58,53,48,93,69,44,30.08,29.86,31,9,31,0.00
2013-9-15,68,65,62,66,60,55,96,83,71,30.22,29.83,23,9,26,0.40
2013-9-16,66,60,54,56,54,51,95,82,68,30.31,30.19,22,8,23,0.00
2013-9-17,78,65,57,69,62,56,100,92,71,30.19,29.86,24,10,27,0.27
2013-9-18,90,77,66,71,68,65,95,76,50,29.87,29.65,37,14,38,0.00
2013-9-19,83,71,58,68,63,52,95,75,56,29.99,29.68,27,10,30,0.15
2013-9-20,70,59,49,54,48,44,91,70,41,30.09,29.97,28,8,28,0.00
2013-9-21,77,60,43,55,49,41,95,70,44,30.05,29.86,24,6,24,0.00
2013-9-22,81,67,55,57,52,46,90,64,30,29.89,29.77,33,12,34,0.00
2013-9-23,77,65,53,55,52,49,89,66,43,29.82,29.68,39,16,41,0.00
2013-9-24,70,63,54,59,56,52,96,79,67,29.90,29.66,28,8,29,0.00
2013-9-25,79,65,48,61,57,47,100,78,51,29.91,29.73,28,8,30,0.00
2013-9-26,87,73,61,61,60,58,92,66,40,29.77,29.68,43,21,43,0.00
2013-9-27,88,76,68,62,60,58,80,60,40,29.78,29.70,38,19,47,0.00
2013-9-28,72,61,49,65,51,42,95,72,41,30.06,29.62,33,11,36,0.64
2013-9-29,76,60,46,49,45,42,88,62,32,30.08,29.88,27,8,29,0.00
2013-9-30,80,64,51,54,51,47,89,65,38,29.91,29.69,28,11,32,0.00
2013-10-1,81,66,53,56,53,49,91,66,41,29.93,29.76,16,5,18,0.00
2013-10-2,84,70,57,67,61,51,95,74,47,29.94,29.78,33,8,33,0.00
2013-10-3,80,69,60,69,63,59,97,82,64,29.86,29.67,32,10,36,2.40
2013-10-4,85,67,51,72,60,40,97,80,50,29.89,29.58,29,13,33,2.42
2013-10-5,52,47,42,40,35,33,84,65,51,29.95,29.85,32,11,34,0.00
2013-10-6,52,47,42,46,41,36,95,82,62,30.05,29.83,29,11,30,0.00
2013-10-7,74,57,41,44,40,37,88,59,29,30.12,30.00,22,6,24,0.00
2013-10-8,77,62,48,48,45,42,80,56,34,30.01,29.88,35,14,38,0.00
2013-10-9,79,64,52,53,50,47,83,63,39,29.98,29.90,32,15,33,0.00
2013-10-10,80,66,54,58,54,49,86,66,45,29.97,29.76,35,17,41,0.00
2013-10-11,78,66,53,60,51,40,86,63,27,29.89,29.60,40,17,45,0.00
2013-10-12,66,54,43,43,37,30,80,57,26,30.30,29.88,22,6,27,0.00
2013-10-13,69,54,36,40,36,32,90,55,29,30.43,30.29,21,7,25,0.00
2013-10-14,60,54,47,59,47,35,97,78,51,30.30,29.72,39,17,43,0.72
2013-10-15,54,48,43,50,41,37,93,77,67,30.11,29.83,36,16,36,0.43
2013-10-16,57,46,40,41,37,30,92,71,41,30.12,29.99,21,7,22,0.00
2013-10-17,60,46,36,44,38,33,89,73,47,30.09,29.92,30,10,31,0.00
2013-10-18,49,40,34,38,32,26,90,73,42,30.17,30.06,15,5,17,0.00
2013-10-19,62,46,32,38,34,29,92,66,36,30.06,29.84,28,6,30,0.00
2013-10-20,64,52,42,42,39,36,79,62,39,30.03,29.74,28,9,28,0.00
2013-10-21,54,42,30,38,34,28,94,75,51,30.14,29.96,21,5,22,0.00
2013-10-22,51,44,36,44,38,32,90,78,64,30.15,29.89,33,12,36,0.00
2013-10-23,51,39,29,41,35,27,96,85,63,30.25,30.08,23,5,25,0.01
2013-10-24,49,38,30,34,28,23,92,69,38,30.45,30.25,21,6,23,0.00
2013-10-25,58,43,29,35,29,23,83,61,40,30.45,30.10,31,10,32,0.00
2013-10-26,50,43,29,37,32,24,84,65,43,30.25,30.05,27,10,29,0.01
2013-10-27,69,48,30,39,32,25,85,59,31,30.18,29.86,29,8,32,0.00
2013-10-28,53,46,36,41,36,31,87,71,56,30.18,29.96,26,11,27,0.00
2013-10-29,54,48,43,53,46,40,98,93,75,30.20,29.95,22,9,24,0.09
2013-10-30,54,48,43,53,47,41,99,98,93,29.97,29.77,22,8,23,0.22
2013-10-31,57,45,38,47,39,36,100,82,51,29.78,29.54,26,6,29,0.01
2013-11-1,59,47,39,43,39,34,87,73,40,30.03,29.63,47,14,56,0.00
2013-11-2,58,44,35,38,34,32,89,69,37,30.23,30.02,28,7,30,0.00
2013-11-3,57,48,38,40,36,32,81,63,45,30.12,29.76,48,20,54,0.00
2013-11-4,55,49,38,45,40,33,88,72,53,30.15,29.79,27,8,29,0.00
2013-11-5,46,42,34,44,40,33,97,91,78,30.15,29.83,0,0,0,0.81
2013-11-6,44,36,32,36,32,30,95,87,70,30.32,30.08,12,1,13,0.02
2013-11-7,49,38,31,33,28,22,92,70,36,30.47,30.31,23,7,24,0.00
2013-11-8,62,48,35,40,34,26,74,59,36,30.32,29.76,41,14,45,0.00
2013-11-9,60,50,37,37,35,31,84,58,39,30.36,29.95,23,8,26,0.00
2013-11-10,53,42,29,38,32,26,91,68,43,30.43,30.18,21,7,21,0.00
2013-11-11,48,34,19,46,27,12,94,77,56,30.81,30.13,35,17,35,0.00
2013-11-12,34,21,10,14,10,5,88,66,31,30.96,30.64,22,6,22,0.00
2013-11-13,53,37,23,31,23,14,76,56,41,30.64,30.04,35,15,38,0.00
2013-11-14,54,42,34,36,29,24,84,60,45,30.04,29.92,25,5,26,0.00
2013-11-15,56,42,27,42,34,24,92,76,50,29.92,29.62,25,8,28,0.00
2013-11-16,65,53,44,53,41,27,95,67,34,29.62,29.33,38,12,46,0.00
2013-11-17,57,48,34,42,36,31,89,65,48,30.09,29.29,30,11,31,0.00
2013-11-18,58,41,27,33,27,22,90,61,27,30.29,30.09,23,6,23,0.00
2013-11-19,62,48,32,36,29,26,80,52,31,30.21,29.89,39,17,43,0.00
2013-11-20,59,48,38,39,35,29,88,63,47,29.94,29.74,30,15,32,0.00
2013-11-21,38,28,20,35,24,17,94,85,74,30.62,29.93,36,21,38,0.00
2013-11-22,27,20,13,17,12,8,86,71,56,30.79,30.61,30,10,34,0.00
2013-11-23,24,17,11,17,8,2,89,68,49,30.96,30.71,25,9,26,0.00
2013-11-24,31,21,10,16,11,5,82,66,47,30.83,30.30,24,11,27,0.00
2013-11-25,43,33,26,31,23,13,78,68,54,30.30,30.18,24,9,24,0.00
2013-11-26,32,25,14,25,16,8,87,68,42,30.49,30.25,41,15,42,0.00
2013-11-27,33,23,9,20,12,5,86,66,45,30.48,30.12,27,8,28,0.00
2013-11-28,33,26,16,22,18,11,85,72,54,30.53,30.14,31,10,34,0.00
2013-11-29,49,31,15,30,22,10,87,71,48,30.54,30.19,27,11,29,0.00
2013-11-30,58,39,27,33,28,22,84,66,37,30.19,30.09,12,4,18,0.00
2013-12-1,50,36,22,32,27,20,93,72,49,30.19,29.89,11,4,11,0.00
2013-12-2,64,45,32,37,33,28,92,66,35,29.89,29.53,15,5,17,0.00
2013-12-3,43,37,33,36,32,29,94,83,73,29.71,29.49,23,9,23,0.00
2013-12-4,34,22,15,32,18,9,96,87,74,30.16,29.67,30,18,34,0.00
2013-12-5,16,11,6,10,2,-2,78,67,54,30.53,30.13,35,14,36,0.00
2013-12-6,12,5,0,-1,-4,-7,77,65,51,30.80,30.52,26,11,28,0.00
2013-12-7,13,5,-4,4,-3,-8,83,70,52,30.85,30.49,14,4,16,0.00
2013-12-8,18,14,7,15,10,2,92,87,62,30.49,30.09,19,7,20,0.00
2013-12-9,15,5,-4,7,-1,-9,89,76,65,30.46,30.19,25,8,30,0.00
2013-12-10,29,22,15,26,15,7,88,73,64,30.37,30.19,24,8,28,0.00
2013-12-11,29,10,2,27,3,-4,92,74,57,30.74,30.31,39,12,42,0.00
2013-12-12,32,21,8,24,14,2,88,75,64,30.56,30.14,19,6,20,0.00
2013-12-13,30,23,14,26,19,10,93,87,82,30.14,29.94,24,6,25,0.00
2013-12-14,22,17,10,20,14,8,91,86,80,30.29,30.13,24,11,28,0.00
2013-12-15,33,23,14,27,20,12,100,87,77,30.24,30.01,11,3,13,0.00
2013-12-16,48,28,14,36,24,11,93,83,61,30.24,30.02,21,4,23,0.00
2013-12-17,41,32,26,30,23,17,92,71,39,30.36,30.14,30,7,31,0.00
2013-12-18,57,40,28,33,28,21,78,61,38,30.14,29.73,25,9,28,0.00
2013-12-19,34,30,18,29,25,16,92,82,73,29.92,29.74,30,14,31,0.00
2013-12-20,18,15,12,16,12,9,92,88,84,30.04,29.91,31,13,31,0.00
2013-12-21,24,21,17,20,17,14,92,85,80,29.99,29.85,26,8,26,0.00
2013-12-22,22,16,8,20,11,3,92,81,67,30.47,29.92,32,15,34,0.00
2013-12-23,12,6,0,4,-2,-7,79,71,54,30.70,30.46,31,10,32,0.00
2013-12-24,27,15,5,25,11,0,94,83,76,30.63,30.22,36,12,39,0.00
2013-12-25,42,29,18,31,23,16,92,78,53,30.37,30.29,35,10,38,0.00
2013-12-26,50,35,23,26,23,18,84,63,38,30.30,30.15,16,6,19,0.00
2013-12-27,62,39,22,31,26,18,83,61,27,30.31,30.10,25,6,27,0.00
2013-12-28,57,40,16,32,27,8,78,62,33,30.15,29.78,50,17,54,0.00
2013-12-29,16,9,3,9,-6,-13,77,53,29,30.44,30.14,46,18,49,0.00
2013-12-30,39,19,3,27,7,-6,82,60,45,30.38,30.16,28,12,30,0.00
2013-12-31,39,18,7,24,11,3,86,76,55,30.36,30.06,30,8,32,0.00
2014-1-1,13,8,2,8,4,-3,87,82,77,30.49,30.17,29,14,29,0.00
2014-1-2,9,3,-2,3,-2,-7,92,80,72,30.58,30.46,14,6,16,0.00